sensor_id;sensor_type;location;lat;lon;timestamp;P1;durP1;ratioP1;P2;durP2;ratioP2
23222;SDS011;11780;13.904;100.620;2022-12-18T00:02:10;19.85;;;11.32;;
23222;SDS011;11780;13.904;100.620;2022-12-18T00:04:40;16.25;;;10.80;;
23222;SDS011;11780;13.904;100.620;2022-12-18T00:07:11;17.90;;;11.30;;
23222;SDS011;11780;13.904;100.620;2022-12-18T00:09:41;19.30;;;11.48;;
23222;SDS011;11780;13.904;100.620;2022-12-18T00:12:11;16.73;;;10.55;;
23222;SDS011;11780;13.904;100.620;2022-12-18T00:14:41;28.48;;;13.10;;
23222;SDS011;11780;13.904;100.620;2022-12-18T00:17:11;28.67;;;13.30;;
23222;SDS011;11780;13.904;100.620;2022-12-18T00:19:41;34.22;;;14.30;;
23222;SDS011;11780;13.904;100.620;2022-12-18T00:22:11;48.83;;;32.95;;
23222;SDS011;11780;13.904;100.620;2022-12-18T00:24:43;32.42;;;17.42;;
23222;SDS011;11780;13.904;100.620;2022-12-18T00:27:13;101.68;;;93.60;;
23222;SDS011;11780;13.904;100.620;2022-12-18T00:29:43;44.45;;;24.73;;
23222;SDS011;11780;13.904;100.620;2022-12-18T00:32:13;36.03;;;17.23;;
23222;SDS011;11780;13.904;100.620;2022-12-18T00:34:43;38.70;;;18.15;;
23222;SDS011;11780;13.904;100.620;2022-12-18T00:37:14;36.35;;;17.58;;
23222;SDS011;11780;13.904;100.620;2022-12-18T00:39:50;31.88;;;16.33;;
23222;SDS011;11780;13.904;100.620;2022-12-18T00:42:20;27.75;;;14.43;;
23222;SDS011;11780;13.904;100.620;2022-12-18T00:45:08;34.10;;;16.90;;
23222;SDS011;11780;13.904;100.620;2022-12-18T00:47:39;25.83;;;13.77;;
23222;SDS011;11780;13.904;100.620;2022-12-18T00:50:10;32.30;;;15.43;;
23222;SDS011;11780;13.904;100.620;2022-12-18T00:52:40;40.40;;;35.88;;
23222;SDS011;11780;13.904;100.620;2022-12-18T00:55:11;29.85;;;14.52;;
23222;SDS011;11780;13.904;100.620;2022-12-18T00:57:42;25.75;;;13.38;;
23222;SDS011;11780;13.904;100.620;2022-12-18T01:00:14;25.63;;;13.68;;
23222;SDS011;11780;13.904;100.620;2022-12-18T01:02:44;25.05;;;13.52;;
23222;SDS011;11780;13.904;100.620;2022-12-18T01:05:15;27.15;;;13.80;;
23222;SDS011;11780;13.904;100.620;2022-12-18T01:07:45;31.90;;;21.23;;
23222;SDS011;11780;13.904;100.620;2022-12-18T01:10:15;28.88;;;13.77;;
23222;SDS011;11780;13.904;100.620;2022-12-18T01:12:45;31.10;;;14.48;;
23222;SDS011;11780;13.904;100.620;2022-12-18T01:15:17;34.80;;;15.23;;
23222;SDS011;11780;13.904;100.620;2022-12-18T01:17:51;31.27;;;15.05;;
23222;SDS011;11780;13.904;100.620;2022-12-18T01:20:26;28.58;;;14.43;;
23222;SDS011;11780;13.904;100.620;2022-12-18T01:22:57;26.42;;;13.65;;
23222;SDS011;11780;13.904;100.620;2022-12-18T01:25:27;33.22;;;16.20;;
23222;SDS011;11780;13.904;100.620;2022-12-18T01:27:57;25.10;;;14.43;;
23222;SDS011;11780;13.904;100.620;2022-12-18T01:30:27;28.02;;;14.10;;
23222;SDS011;11780;13.904;100.620;2022-12-18T01:32:57;34.53;;;16.23;;
23222;SDS011;11780;13.904;100.620;2022-12-18T01:35:27;29.38;;;15.35;;
23222;SDS011;11780;13.904;100.620;2022-12-18T01:37:57;32.00;;;16.17;;
23222;SDS011;11780;13.904;100.620;2022-12-18T01:40:27;33.33;;;16.20;;
23222;SDS011;11780;13.904;100.620;2022-12-18T01:42:57;30.40;;;16.00;;
23222;SDS011;11780;13.904;100.620;2022-12-18T01:45:28;31.85;;;18.50;;
23222;SDS011;11780;13.904;100.620;2022-12-18T01:48:03;32.38;;;15.80;;
23222;SDS011;11780;13.904;100.620;2022-12-18T01:50:37;27.70;;;13.68;;
23222;SDS011;11780;13.904;100.620;2022-12-18T01:53:14;27.85;;;14.57;;
23222;SDS011;11780;13.904;100.620;2022-12-18T01:55:50;24.70;;;12.98;;
23222;SDS011;11780;13.904;100.620;2022-12-18T01:58:43;28.30;;;14.55;;
23222;SDS011;11780;13.904;100.620;2022-12-18T02:01:32;24.73;;;14.32;;
23222;SDS011;11780;13.904;100.620;2022-12-18T02:04:22;28.13;;;14.35;;
23222;SDS011;11780;13.904;100.620;2022-12-18T02:09:35;30.05;;;14.35;;
23222;SDS011;11780;13.904;100.620;2022-12-18T02:12:19;21.88;;;12.95;;
23222;SDS011;11780;13.904;100.620;2022-12-18T02:15:02;29.27;;;14.55;;
23222;SDS011;11780;13.904;100.620;2022-12-18T02:18:05;32.05;;;16.05;;
23222;SDS011;11780;13.904;100.620;2022-12-18T02:26:50;29.30;;;13.95;;
23222;SDS011;11780;13.904;100.620;2022-12-18T02:29:31;27.73;;;14.10;;
23222;SDS011;11780;13.904;100.620;2022-12-18T02:32:14;27.15;;;14.30;;
23222;SDS011;11780;13.904;100.620;2022-12-18T02:34:51;29.98;;;14.85;;
23222;SDS011;11780;13.904;100.620;2022-12-18T02:37:26;27.30;;;13.90;;
23222;SDS011;11780;13.904;100.620;2022-12-18T02:40:02;29.73;;;14.43;;
23222;SDS011;11780;13.904;100.620;2022-12-18T02:42:36;34.30;;;16.73;;
23222;SDS011;11780;13.904;100.620;2022-12-18T02:45:08;24.48;;;13.63;;
23222;SDS011;11780;13.904;100.620;2022-12-18T02:47:40;28.58;;;15.07;;
23222;SDS011;11780;13.904;100.620;2022-12-18T02:50:30;23.92;;;12.68;;
23222;SDS011;11780;13.904;100.620;2022-12-18T02:59:17;23.73;;;13.45;;
23222;SDS011;11780;13.904;100.620;2022-12-18T03:04:50;22.77;;;13.27;;
23222;SDS011;11780;13.904;100.620;2022-12-18T03:07:38;22.33;;;12.57;;
23222;SDS011;11780;13.904;100.620;2022-12-18T03:10:28;24.83;;;13.48;;
23222;SDS011;11780;13.904;100.620;2022-12-18T03:13:06;27.25;;;14.13;;
23222;SDS011;11780;13.904;100.620;2022-12-18T03:18:20;35.38;;;15.52;;
23222;SDS011;11780;13.904;100.620;2022-12-18T03:20:54;28.98;;;13.70;;
23222;SDS011;11780;13.904;100.620;2022-12-18T03:23:29;24.55;;;13.02;;
23222;SDS011;11780;13.904;100.620;2022-12-18T03:26:09;25.20;;;13.10;;
23222;SDS011;11780;13.904;100.620;2022-12-18T03:28:47;33.35;;;15.15;;
23222;SDS011;11780;13.904;100.620;2022-12-18T03:31:25;24.73;;;13.43;;
23222;SDS011;11780;13.904;100.620;2022-12-18T03:33:59;30.55;;;15.68;;
23222;SDS011;11780;13.904;100.620;2022-12-18T03:36:42;29.88;;;15.18;;
23222;SDS011;11780;13.904;100.620;2022-12-18T03:39:13;26.33;;;14.73;;
23222;SDS011;11780;13.904;100.620;2022-12-18T03:41:55;30.50;;;15.77;;
23222;SDS011;11780;13.904;100.620;2022-12-18T03:50:46;27.05;;;14.45;;
23222;SDS011;11780;13.904;100.620;2022-12-18T03:56:34;28.77;;;13.85;;
23222;SDS011;11780;13.904;100.620;2022-12-18T03:59:09;28.80;;;13.90;;
23222;SDS011;11780;13.904;100.620;2022-12-18T04:01:48;25.83;;;14.32;;
23222;SDS011;11780;13.904;100.620;2022-12-18T04:04:23;27.77;;;14.10;;
23222;SDS011;11780;13.904;100.620;2022-12-18T04:06:58;28.90;;;14.73;;
23222;SDS011;11780;13.904;100.620;2022-12-18T04:09:32;28.23;;;13.25;;
23222;SDS011;11780;13.904;100.620;2022-12-18T04:12:05;28.80;;;13.98;;
23222;SDS011;11780;13.904;100.620;2022-12-18T04:17:08;28.10;;;13.82;;
23222;SDS011;11780;13.904;100.620;2022-12-18T04:19:39;27.95;;;13.00;;
23222;SDS011;11780;13.904;100.620;2022-12-18T04:22:10;26.08;;;13.82;;
23222;SDS011;11780;13.904;100.620;2022-12-18T04:24:45;29.73;;;14.13;;
23222;SDS011;11780;13.904;100.620;2022-12-18T04:27:23;32.72;;;15.98;;
23222;SDS011;11780;13.904;100.620;2022-12-18T04:29:54;24.08;;;13.20;;
23222;SDS011;11780;13.904;100.620;2022-12-18T04:32:24;26.38;;;13.52;;
23222;SDS011;11780;13.904;100.620;2022-12-18T04:34:55;29.60;;;14.25;;
23222;SDS011;11780;13.904;100.620;2022-12-18T04:37:25;30.90;;;14.95;;
23222;SDS011;11780;13.904;100.620;2022-12-18T04:39:55;24.88;;;13.23;;
23222;SDS011;11780;13.904;100.620;2022-12-18T04:42:33;26.08;;;13.52;;
23222;SDS011;11780;13.904;100.620;2022-12-18T04:45:03;32.58;;;15.07;;
23222;SDS011;11780;13.904;100.620;2022-12-18T04:47:34;25.70;;;13.87;;
23222;SDS011;11780;13.904;100.620;2022-12-18T04:50:04;28.05;;;13.32;;
23222;SDS011;11780;13.904;100.620;2022-12-18T04:52:35;28.30;;;13.17;;
23222;SDS011;11780;13.904;100.620;2022-12-18T04:55:05;25.13;;;12.63;;
23222;SDS011;11780;13.904;100.620;2022-12-18T04:57:35;27.02;;;13.13;;
23222;SDS011;11780;13.904;100.620;2022-12-18T05:00:05;27.90;;;13.48;;
23222;SDS011;11780;13.904;100.620;2022-12-18T05:02:36;27.48;;;12.85;;
23222;SDS011;11780;13.904;100.620;2022-12-18T05:05:07;24.73;;;13.57;;
23222;SDS011;11780;13.904;100.620;2022-12-18T05:07:38;26.17;;;14.50;;
23222;SDS011;11780;13.904;100.620;2022-12-18T05:10:08;28.48;;;14.23;;
23222;SDS011;11780;13.904;100.620;2022-12-18T05:12:38;24.43;;;11.70;;
23222;SDS011;11780;13.904;100.620;2022-12-18T05:15:30;25.48;;;13.32;;
23222;SDS011;11780;13.904;100.620;2022-12-18T05:18:03;23.13;;;13.00;;
23222;SDS011;11780;13.904;100.620;2022-12-18T05:20:34;25.08;;;12.98;;
23222;SDS011;11780;13.904;100.620;2022-12-18T05:23:04;27.20;;;13.98;;
23222;SDS011;11780;13.904;100.620;2022-12-18T05:25:34;24.83;;;12.60;;
23222;SDS011;11780;13.904;100.620;2022-12-18T05:28:04;25.88;;;13.60;;
23222;SDS011;11780;13.904;100.620;2022-12-18T05:30:34;24.50;;;13.25;;
23222;SDS011;11780;13.904;100.620;2022-12-18T05:33:04;22.35;;;12.75;;
23222;SDS011;11780;13.904;100.620;2022-12-18T05:35:34;24.50;;;12.65;;
23222;SDS011;11780;13.904;100.620;2022-12-18T05:38:04;25.52;;;12.32;;
23222;SDS011;11780;13.904;100.620;2022-12-18T05:40:34;24.15;;;13.43;;
23222;SDS011;11780;13.904;100.620;2022-12-18T05:43:05;25.23;;;13.10;;
23222;SDS011;11780;13.904;100.620;2022-12-18T05:48:08;26.17;;;13.18;;
23222;SDS011;11780;13.904;100.620;2022-12-18T05:50:41;23.42;;;12.43;;
23222;SDS011;11780;13.904;100.620;2022-12-18T05:53:15;24.10;;;12.30;;
23222;SDS011;11780;13.904;100.620;2022-12-18T05:55:48;24.58;;;13.02;;
23222;SDS011;11780;13.904;100.620;2022-12-18T05:58:18;26.00;;;13.93;;
23222;SDS011;11780;13.904;100.620;2022-12-18T06:00:48;23.58;;;12.57;;
23222;SDS011;11780;13.904;100.620;2022-12-18T06:03:18;26.13;;;13.15;;
23222;SDS011;11780;13.904;100.620;2022-12-18T06:05:52;27.10;;;13.70;;
23222;SDS011;11780;13.904;100.620;2022-12-18T06:08:22;30.42;;;13.85;;
23222;SDS011;11780;13.904;100.620;2022-12-18T06:10:52;27.48;;;14.23;;
23222;SDS011;11780;13.904;100.620;2022-12-18T06:13:22;29.88;;;14.48;;
23222;SDS011;11780;13.904;100.620;2022-12-18T06:15:52;27.75;;;14.15;;
23222;SDS011;11780;13.904;100.620;2022-12-18T06:18:22;20.23;;;12.15;;
23222;SDS011;11780;13.904;100.620;2022-12-18T06:20:56;24.60;;;13.07;;
23222;SDS011;11780;13.904;100.620;2022-12-18T06:23:27;28.42;;;13.80;;
23222;SDS011;11780;13.904;100.620;2022-12-18T06:25:57;25.73;;;12.77;;
23222;SDS011;11780;13.904;100.620;2022-12-18T06:28:28;25.52;;;14.20;;
23222;SDS011;11780;13.904;100.620;2022-12-18T06:30:58;25.70;;;13.02;;
23222;SDS011;11780;13.904;100.620;2022-12-18T06:33:28;26.40;;;13.32;;
23222;SDS011;11780;13.904;100.620;2022-12-18T06:36:02;25.85;;;13.30;;
23222;SDS011;11780;13.904;100.620;2022-12-18T06:38:39;28.33;;;14.23;;
23222;SDS011;11780;13.904;100.620;2022-12-18T06:41:11;23.90;;;13.32;;
23222;SDS011;11780;13.904;100.620;2022-12-18T06:43:43;25.23;;;13.43;;
23222;SDS011;11780;13.904;100.620;2022-12-18T06:46:14;27.53;;;13.80;;
23222;SDS011;11780;13.904;100.620;2022-12-18T06:48:48;28.25;;;14.05;;
23222;SDS011;11780;13.904;100.620;2022-12-18T06:51:20;24.75;;;12.93;;
23222;SDS011;11780;13.904;100.620;2022-12-18T06:56:21;31.42;;;14.55;;
23222;SDS011;11780;13.904;100.620;2022-12-18T06:58:51;25.63;;;13.68;;
23222;SDS011;11780;13.904;100.620;2022-12-18T07:01:21;26.70;;;14.32;;
23222;SDS011;11780;13.904;100.620;2022-12-18T07:03:55;26.55;;;13.60;;
23222;SDS011;11780;13.904;100.620;2022-12-18T07:06:26;27.20;;;13.55;;
23222;SDS011;11780;13.904;100.620;2022-12-18T07:08:57;28.05;;;14.73;;
23222;SDS011;11780;13.904;100.620;2022-12-18T07:11:27;24.52;;;13.65;;
23222;SDS011;11780;13.904;100.620;2022-12-18T07:13:57;25.08;;;13.32;;
23222;SDS011;11780;13.904;100.620;2022-12-18T07:16:27;26.02;;;14.50;;
23222;SDS011;11780;13.904;100.620;2022-12-18T07:18:57;31.52;;;15.25;;
23222;SDS011;11780;13.904;100.620;2022-12-18T07:21:28;32.38;;;18.08;;
23222;SDS011;11780;13.904;100.620;2022-12-18T07:23:58;29.02;;;15.85;;
23222;SDS011;11780;13.904;100.620;2022-12-18T07:26:28;23.20;;;13.90;;
23222;SDS011;11780;13.904;100.620;2022-12-18T07:28:58;36.42;;;16.98;;
23222;SDS011;11780;13.904;100.620;2022-12-18T07:31:28;30.30;;;15.82;;
23222;SDS011;11780;13.904;100.620;2022-12-18T07:33:58;32.22;;;16.00;;
23222;SDS011;11780;13.904;100.620;2022-12-18T07:36:28;29.33;;;16.67;;
23222;SDS011;11780;13.904;100.620;2022-12-18T07:38:58;30.23;;;15.38;;
23222;SDS011;11780;13.904;100.620;2022-12-18T07:41:28;32.20;;;16.20;;
23222;SDS011;11780;13.904;100.620;2022-12-18T07:44:09;26.13;;;14.18;;
23222;SDS011;11780;13.904;100.620;2022-12-18T07:46:40;24.67;;;14.13;;
23222;SDS011;11780;13.904;100.620;2022-12-18T07:49:10;27.42;;;14.48;;
23222;SDS011;11780;13.904;100.620;2022-12-18T07:51:40;23.08;;;12.90;;
23222;SDS011;11780;13.904;100.620;2022-12-18T07:54:10;26.98;;;14.43;;
23222;SDS011;11780;13.904;100.620;2022-12-18T07:56:40;27.67;;;14.52;;
23222;SDS011;11780;13.904;100.620;2022-12-18T07:59:10;31.02;;;15.75;;
23222;SDS011;11780;13.904;100.620;2022-12-18T08:01:40;29.88;;;15.48;;
23222;SDS011;11780;13.904;100.620;2022-12-18T08:04:10;28.65;;;15.13;;
23222;SDS011;11780;13.904;100.620;2022-12-18T08:06:40;25.58;;;13.52;;
23222;SDS011;11780;13.904;100.620;2022-12-18T08:09:14;30.30;;;14.65;;
23222;SDS011;11780;13.904;100.620;2022-12-18T08:11:44;26.73;;;14.15;;
23222;SDS011;11780;13.904;100.620;2022-12-18T08:14:14;32.03;;;15.38;;
23222;SDS011;11780;13.904;100.620;2022-12-18T08:16:44;72.45;;;31.50;;
23222;SDS011;11780;13.904;100.620;2022-12-18T08:19:14;33.83;;;15.75;;
23222;SDS011;11780;13.904;100.620;2022-12-18T08:21:44;39.38;;;16.75;;
23222;SDS011;11780;13.904;100.620;2022-12-18T08:24:14;31.70;;;16.15;;
23222;SDS011;11780;13.904;100.620;2022-12-18T08:26:44;31.15;;;16.52;;
23222;SDS011;11780;13.904;100.620;2022-12-18T08:29:34;39.72;;;18.27;;
23222;SDS011;11780;13.904;100.620;2022-12-18T08:32:04;44.40;;;20.85;;
23222;SDS011;11780;13.904;100.620;2022-12-18T08:34:34;40.20;;;20.70;;
23222;SDS011;11780;13.904;100.620;2022-12-18T08:37:05;47.80;;;23.58;;
23222;SDS011;11780;13.904;100.620;2022-12-18T08:39:35;44.60;;;22.65;;
23222;SDS011;11780;13.904;100.620;2022-12-18T08:42:06;34.65;;;18.02;;
23222;SDS011;11780;13.904;100.620;2022-12-18T08:44:54;37.47;;;18.38;;
23222;SDS011;11780;13.904;100.620;2022-12-18T08:47:24;41.15;;;19.65;;
23222;SDS011;11780;13.904;100.620;2022-12-18T08:49:55;48.35;;;21.13;;
23222;SDS011;11780;13.904;100.620;2022-12-18T08:52:25;38.10;;;17.63;;
23222;SDS011;11780;13.904;100.620;2022-12-18T08:54:55;47.30;;;20.00;;
23222;SDS011;11780;13.904;100.620;2022-12-18T08:57:24;31.42;;;17.65;;
23222;SDS011;11780;13.904;100.620;2022-12-18T08:59:54;37.15;;;18.45;;
23222;SDS011;11780;13.904;100.620;2022-12-18T09:02:24;36.45;;;18.33;;
23222;SDS011;11780;13.904;100.620;2022-12-18T09:04:55;43.05;;;20.10;;
23222;SDS011;11780;13.904;100.620;2022-12-18T09:07:25;42.00;;;18.60;;
23222;SDS011;11780;13.904;100.620;2022-12-18T09:09:55;47.80;;;21.08;;
23222;SDS011;11780;13.904;100.620;2022-12-18T09:12:24;42.58;;;20.70;;
23222;SDS011;11780;13.904;100.620;2022-12-18T09:14:54;48.30;;;22.50;;
23222;SDS011;11780;13.904;100.620;2022-12-18T09:17:25;40.43;;;20.03;;
23222;SDS011;11780;13.904;100.620;2022-12-18T09:19:55;80.53;;;31.00;;
23222;SDS011;11780;13.904;100.620;2022-12-18T09:22:26;45.97;;;18.97;;
23222;SDS011;11780;13.904;100.620;2022-12-18T09:24:56;35.38;;;18.42;;
23222;SDS011;11780;13.904;100.620;2022-12-18T09:27:26;46.25;;;20.88;;
23222;SDS011;11780;13.904;100.620;2022-12-18T09:29:56;34.85;;;16.98;;
23222;SDS011;11780;13.904;100.620;2022-12-18T09:32:26;44.67;;;19.10;;
23222;SDS011;11780;13.904;100.620;2022-12-18T09:34:56;41.88;;;20.23;;
23222;SDS011;11780;13.904;100.620;2022-12-18T09:37:26;45.92;;;20.63;;
23222;SDS011;11780;13.904;100.620;2022-12-18T09:39:56;38.45;;;17.75;;
23222;SDS011;11780;13.904;100.620;2022-12-18T09:42:26;37.85;;;19.02;;
23222;SDS011;11780;13.904;100.620;2022-12-18T09:44:56;42.35;;;20.48;;
23222;SDS011;11780;13.904;100.620;2022-12-18T09:47:33;39.08;;;18.95;;
23222;SDS011;11780;13.904;100.620;2022-12-18T09:50:14;47.85;;;20.80;;
23222;SDS011;11780;13.904;100.620;2022-12-18T09:52:49;51.30;;;23.27;;
23222;SDS011;11780;13.904;100.620;2022-12-18T09:58:19;42.75;;;21.80;;
23222;SDS011;11780;13.904;100.620;2022-12-18T10:00:51;50.65;;;25.90;;
23222;SDS011;11780;13.904;100.620;2022-12-18T10:03:23;51.15;;;24.65;;
23222;SDS011;11780;13.904;100.620;2022-12-18T10:14:23;48.17;;;24.40;;
23222;SDS011;11780;13.904;100.620;2022-12-18T10:17:19;44.63;;;21.33;;
23222;SDS011;11780;13.904;100.620;2022-12-18T10:20:00;40.65;;;21.23;;
23222;SDS011;11780;13.904;100.620;2022-12-18T10:22:42;41.03;;;20.23;;
23222;SDS011;11780;13.904;100.620;2022-12-18T10:25:24;48.58;;;23.05;;
23222;SDS011;11780;13.904;100.620;2022-12-18T10:28:13;38.97;;;21.48;;
23222;SDS011;11780;13.904;100.620;2022-12-18T10:30:45;39.25;;;20.98;;
23222;SDS011;11780;13.904;100.620;2022-12-18T10:33:19;39.03;;;20.75;;
23222;SDS011;11780;13.904;100.620;2022-12-18T10:35:52;32.63;;;18.48;;
23222;SDS011;11780;13.904;100.620;2022-12-18T10:38:24;38.95;;;22.17;;
23222;SDS011;11780;13.904;100.620;2022-12-18T10:40:57;43.58;;;22.85;;
23222;SDS011;11780;13.904;100.620;2022-12-18T10:43:30;41.38;;;22.38;;
23222;SDS011;11780;13.904;100.620;2022-12-18T10:51:21;53.10;;;28.52;;
23222;SDS011;11780;13.904;100.620;2022-12-18T10:56:54;62.95;;;33.75;;
23222;SDS011;11780;13.904;100.620;2022-12-18T11:00:28;61.47;;;32.88;;
23222;SDS011;11780;13.904;100.620;2022-12-18T11:02:58;62.92;;;37.35;;
23222;SDS011;11780;13.904;100.620;2022-12-18T11:08:00;55.03;;;32.83;;
23222;SDS011;11780;13.904;100.620;2022-12-18T11:10:35;55.90;;;31.10;;
23222;SDS011;11780;13.904;100.620;2022-12-18T11:13:18;56.85;;;29.67;;
23222;SDS011;11780;13.904;100.620;2022-12-18T11:15:53;43.67;;;27.20;;
23222;SDS011;11780;13.904;100.620;2022-12-18T11:20:58;43.42;;;24.10;;
23222;SDS011;11780;13.904;100.620;2022-12-18T11:23:36;45.67;;;24.02;;
23222;SDS011;11780;13.904;100.620;2022-12-18T11:26:14;47.15;;;24.92;;
23222;SDS011;11780;13.904;100.620;2022-12-18T11:28:51;48.22;;;24.77;;
23222;SDS011;11780;13.904;100.620;2022-12-18T11:31:36;55.10;;;24.42;;
23222;SDS011;11780;13.904;100.620;2022-12-18T11:36:56;45.05;;;21.60;;
23222;SDS011;11780;13.904;100.620;2022-12-18T11:39:35;48.10;;;23.17;;
23222;SDS011;11780;13.904;100.620;2022-12-18T11:42:12;42.67;;;22.17;;
23222;SDS011;11780;13.904;100.620;2022-12-18T11:45:43;47.15;;;23.20;;
23222;SDS011;11780;13.904;100.620;2022-12-18T11:50:52;44.35;;;22.38;;
23222;SDS011;11780;13.904;100.620;2022-12-18T11:53:27;46.00;;;22.48;;
23222;SDS011;11780;13.904;100.620;2022-12-18T11:56:05;42.55;;;20.85;;
23222;SDS011;11780;13.904;100.620;2022-12-18T11:59:03;39.60;;;19.77;;
23222;SDS011;11780;13.904;100.620;2022-12-18T12:01:55;48.70;;;19.45;;
23222;SDS011;11780;13.904;100.620;2022-12-18T12:07:45;41.60;;;20.48;;
23222;SDS011;11780;13.904;100.620;2022-12-18T12:10:31;44.53;;;21.17;;
23222;SDS011;11780;13.904;100.620;2022-12-18T12:13:35;38.88;;;20.90;;
23222;SDS011;11780;13.904;100.620;2022-12-18T12:25:16;40.25;;;17.40;;
23222;SDS011;11780;13.904;100.620;2022-12-18T12:39:08;23.67;;;14.40;;
23222;SDS011;11780;13.904;100.620;2022-12-18T12:41:43;24.75;;;15.02;;
23222;SDS011;11780;13.904;100.620;2022-12-18T12:44:37;21.40;;;14.27;;
23222;SDS011;11780;13.904;100.620;2022-12-18T12:47:21;21.88;;;13.60;;
23222;SDS011;11780;13.904;100.620;2022-12-18T12:49:58;27.70;;;14.45;;
23222;SDS011;11780;13.904;100.620;2022-12-18T12:52:55;22.10;;;13.75;;
23222;SDS011;11780;13.904;100.620;2022-12-18T12:55:26;27.05;;;13.48;;
23222;SDS011;11780;13.904;100.620;2022-12-18T12:58:16;28.40;;;14.95;;
23222;SDS011;11780;13.904;100.620;2022-12-18T13:00:53;29.98;;;13.93;;
23222;SDS011;11780;13.904;100.620;2022-12-18T13:06:16;24.58;;;13.32;;
23222;SDS011;11780;13.904;100.620;2022-12-18T13:08:59;28.08;;;13.80;;
23222;SDS011;11780;13.904;100.620;2022-12-18T13:11:42;26.48;;;13.93;;
23222;SDS011;11780;13.904;100.620;2022-12-18T13:14:36;29.70;;;15.00;;
23222;SDS011;11780;13.904;100.620;2022-12-18T13:19:51;24.60;;;13.35;;
23222;SDS011;11780;13.904;100.620;2022-12-18T13:25:35;33.60;;;15.30;;
23222;SDS011;11780;13.904;100.620;2022-12-18T13:28:13;66.43;;;28.80;;
23222;SDS011;11780;13.904;100.620;2022-12-18T13:33:44;31.70;;;14.75;;
23222;SDS011;11780;13.904;100.620;2022-12-18T13:36:35;21.42;;;13.90;;
23222;SDS011;11780;13.904;100.620;2022-12-18T13:44:38;28.00;;;14.70;;
23222;SDS011;11780;13.904;100.620;2022-12-18T13:50:10;24.52;;;13.65;;
23222;SDS011;11780;13.904;100.620;2022-12-18T13:53:02;27.05;;;13.02;;
23222;SDS011;11780;13.904;100.620;2022-12-18T13:55:34;21.27;;;12.98;;
23222;SDS011;11780;13.904;100.620;2022-12-18T13:58:04;21.88;;;13.15;;
23222;SDS011;11780;13.904;100.620;2022-12-18T14:00:35;19.97;;;13.10;;
23222;SDS011;11780;13.904;100.620;2022-12-18T14:03:22;18.25;;;12.57;;
23222;SDS011;11780;13.904;100.620;2022-12-18T14:06:01;20.60;;;13.15;;
23222;SDS011;11780;13.904;100.620;2022-12-18T14:08:37;22.45;;;12.75;;
23222;SDS011;11780;13.904;100.620;2022-12-18T14:11:21;18.13;;;12.82;;
23222;SDS011;11780;13.904;100.620;2022-12-18T14:13:54;29.60;;;17.65;;
23222;SDS011;11780;13.904;100.620;2022-12-18T14:16:25;20.15;;;12.35;;
23222;SDS011;11780;13.904;100.620;2022-12-18T14:18:58;24.33;;;12.23;;
23222;SDS011;11780;13.904;100.620;2022-12-18T14:21:45;19.27;;;15.32;;
23222;SDS011;11780;13.904;100.620;2022-12-18T14:24:20;20.38;;;11.95;;
23222;SDS011;11780;13.904;100.620;2022-12-18T14:26:50;15.45;;;12.43;;
23222;SDS011;11780;13.904;100.620;2022-12-18T14:32:06;20.23;;;13.43;;
23222;SDS011;11780;13.904;100.620;2022-12-18T14:34:44;22.20;;;14.48;;
23222;SDS011;11780;13.904;100.620;2022-12-18T14:37:22;28.48;;;14.52;;
23222;SDS011;11780;13.904;100.620;2022-12-18T14:39:58;20.55;;;15.27;;
23222;SDS011;11780;13.904;100.620;2022-12-18T14:42:37;22.27;;;14.77;;
23222;SDS011;11780;13.904;100.620;2022-12-18T14:48:18;27.40;;;16.55;;
23222;SDS011;11780;13.904;100.620;2022-12-18T14:50:58;27.38;;;16.25;;
23222;SDS011;11780;13.904;100.620;2022-12-18T14:56:36;30.98;;;17.60;;
23222;SDS011;11780;13.904;100.620;2022-12-18T14:59:19;28.55;;;16.73;;
23222;SDS011;11780;13.904;100.620;2022-12-18T15:07:40;27.10;;;17.00;;
23222;SDS011;11780;13.904;100.620;2022-12-18T15:10:22;29.27;;;17.13;;
23222;SDS011;11780;13.904;100.620;2022-12-18T15:18:13;30.52;;;17.80;;
23222;SDS011;11780;13.904;100.620;2022-12-18T15:20:51;35.75;;;17.70;;
23222;SDS011;11780;13.904;100.620;2022-12-18T15:23:27;28.52;;;17.52;;
23222;SDS011;11780;13.904;100.620;2022-12-18T15:26:15;23.95;;;16.33;;
23222;SDS011;11780;13.904;100.620;2022-12-18T15:28:53;26.00;;;17.58;;
23222;SDS011;11780;13.904;100.620;2022-12-18T15:31:30;28.20;;;17.80;;
23222;SDS011;11780;13.904;100.620;2022-12-18T15:36:37;24.20;;;16.75;;
23222;SDS011;11780;13.904;100.620;2022-12-18T15:39:10;25.67;;;17.50;;
23222;SDS011;11780;13.904;100.620;2022-12-18T15:41:41;26.02;;;16.95;;
23222;SDS011;11780;13.904;100.620;2022-12-18T15:44:32;21.05;;;16.38;;
23222;SDS011;11780;13.904;100.620;2022-12-18T15:47:03;23.85;;;16.90;;
23222;SDS011;11780;13.904;100.620;2022-12-18T15:49:39;21.75;;;16.05;;
23222;SDS011;11780;13.904;100.620;2022-12-18T15:52:09;21.75;;;16.20;;
23222;SDS011;11780;13.904;100.620;2022-12-18T15:54:43;26.60;;;16.25;;
23222;SDS011;11780;13.904;100.620;2022-12-18T15:57:32;27.23;;;18.27;;
23222;SDS011;11780;13.904;100.620;2022-12-18T16:00:17;24.05;;;17.48;;
23222;SDS011;11780;13.904;100.620;2022-12-18T16:02:47;29.17;;;18.95;;
23222;SDS011;11780;13.904;100.620;2022-12-18T16:05:18;28.38;;;17.88;;
23222;SDS011;11780;13.904;100.620;2022-12-18T16:07:50;24.67;;;18.08;;
23222;SDS011;11780;13.904;100.620;2022-12-18T16:10:21;24.95;;;18.48;;
23222;SDS011;11780;13.904;100.620;2022-12-18T16:12:54;23.92;;;15.75;;
23222;SDS011;11780;13.904;100.620;2022-12-18T16:15:24;22.40;;;16.58;;
23222;SDS011;11780;13.904;100.620;2022-12-18T16:17:54;22.90;;;15.55;;
23222;SDS011;11780;13.904;100.620;2022-12-18T16:20:24;25.27;;;17.17;;
23222;SDS011;11780;13.904;100.620;2022-12-18T16:22:54;24.67;;;15.85;;
23222;SDS011;11780;13.904;100.620;2022-12-18T16:25:28;24.23;;;15.65;;
23222;SDS011;11780;13.904;100.620;2022-12-18T16:27:58;29.20;;;17.17;;
23222;SDS011;11780;13.904;100.620;2022-12-18T16:30:29;25.88;;;16.00;;
23222;SDS011;11780;13.904;100.620;2022-12-18T16:33:04;23.42;;;15.40;;
23222;SDS011;11780;13.904;100.620;2022-12-18T16:35:34;23.42;;;16.08;;
23222;SDS011;11780;13.904;100.620;2022-12-18T16:40:36;21.80;;;16.08;;
23222;SDS011;11780;13.904;100.620;2022-12-18T16:43:27;22.42;;;15.15;;
23222;SDS011;11780;13.904;100.620;2022-12-18T16:46:12;23.20;;;15.10;;
23222;SDS011;11780;13.904;100.620;2022-12-18T16:48:44;19.50;;;15.63;;
23222;SDS011;11780;13.904;100.620;2022-12-18T16:51:14;22.85;;;15.60;;
23222;SDS011;11780;13.904;100.620;2022-12-18T16:53:44;18.80;;;15.32;;
23222;SDS011;11780;13.904;100.620;2022-12-18T16:56:14;28.60;;;16.30;;